Time;durP1;ratioP1;P1;durP2;ratioP2;P2;SDS_P1;SDS_P2;PMS_P1;PMS_P2;Temp;Humidity;BMP_temperature;BMP_pressure;BME280_temperature;BME280_humidity;BME280_pressure;Samples;Min_cycle;Max_cycle;Signal;HPM_P1;HPM_P2
2022/09/27 00:02:04;;;;;;;2.78;0.30;;;10.70;99.90;;;;;;4983887;28;20039;-59
2022/09/27 00:04:29;;;;;;;0.30;0.20;;;10.70;99.90;;;;;;4990600;28;20100;-59
2022/09/27 00:06:55;;;;;;;3.60;0.40;;;10.80;99.90;;;;;;4990161;28;20454;-59
2022/09/27 00:09:21;;;;;;;0.90;0.30;;;10.70;99.90;;;;;;4990313;28;20030;-59
2022/09/27 00:11:46;;;;;;;0.93;0.20;;;10.70;99.90;;;;;;4980427;28;20027;-59
2022/09/27 00:14:14;;;;;;;4.18;0.50;;;10.50;99.90;;;;;;4988019;28;20035;-59
2022/09/27 00:16:41;;;;;;;1.42;0.52;;;10.50;99.90;;;;;;4985861;28;20030;-59
2022/09/27 00:19:13;;;;;;;1.23;0.47;;;10.40;99.90;;;;;;4991043;28;20031;-59
2022/09/27 00:21:40;;;;;;;1.08;0.28;;;10.40;99.90;;;;;;4990274;28;20018;-57
2022/09/27 00:24:06;;;;;;;0.57;0.30;;;10.40;99.90;;;;;;4989596;28;20085;-59
2022/09/27 00:26:32;;;;;;;2.97;0.20;;;10.40;99.90;;;;;;4988407;28;20026;-58
2022/09/27 00:28:58;;;;;;;2.22;0.30;;;10.40;99.90;;;;;;4983234;28;20038;-59
2022/09/27 00:31:28;;;;;;;0.40;0.20;;;10.40;99.90;;;;;;4989790;28;20034;-59
2022/09/27 00:33:55;;;;;;;3.30;0.30;;;10.40;99.90;;;;;;4988113;28;20030;-59
2022/09/27 00:36:22;;;;;;;2.83;0.20;;;10.50;99.90;;;;;;4991296;28;20089;-57
2022/09/27 00:38:48;;;;;;;0.90;0.25;;;10.50;99.90;;;;;;4988929;28;20037;-58
2022/09/27 00:41:19;;;;;;;3.17;0.43;;;10.50;99.90;;;;;;4980051;28;20081;-59
2022/09/27 00:43:54;;;;;;;0.35;0.10;;;10.60;99.90;;;;;;4984467;28;20043;-59
2022/09/27 00:46:28;;;;;;;1.88;0.10;;;10.50;99.90;;;;;;4989286;28;20037;-59
2022/09/27 00:49:08;;;;;;;1.23;0.30;;;10.40;99.90;;;;;;4988342;28;20034;-58
2022/09/27 00:51:37;;;;;;;0.32;0.20;;;10.30;99.90;;;;;;4983311;28;20383;-59
2022/09/27 00:54:06;;;;;;;2.85;0.63;;;10.30;99.90;;;;;;4987298;28;20064;-59
2022/09/27 00:56:33;;;;;;;1.60;0.30;;;10.30;99.90;;;;;;4988810;28;20058;-58
2022/09/27 00:59:07;;;;;;;0.88;0.13;;;10.20;99.90;;;;;;4988802;28;20559;-59
2022/09/27 01:01:34;;;;;;;1.85;0.45;;;10.20;99.90;;;;;;4985701;28;20030;-59
2022/09/27 01:04:05;;;;;;;3.03;0.30;;;10.10;99.90;;;;;;4988665;28;20359;-59
2022/09/27 01:06:30;;;;;;;0.63;0.40;;;10.10;99.90;;;;;;4981329;28;20026;-57
2022/09/27 01:08:56;;;;;;;2.60;0.50;;;10.10;99.90;;;;;;4988502;28;20093;-59
2022/09/27 01:11:31;;;;;;;2.60;0.55;;;10.10;99.90;;;;;;4977675;28;20061;-58
2022/09/27 01:14:20;;;;;;;1.02;0.30;;;10.10;99.90;;;;;;4987678;28;20026;-59
2022/09/27 01:17:00;;;;;;;1.55;0.20;;;10.10;99.90;;;;;;4987950;28;20034;-59
2022/09/27 01:19:59;;;;;;;1.23;0.20;;;10.00;99.90;;;;;;4990429;28;20049;-59
2022/09/27 01:22:29;;;;;;;1.85;0.22;;;9.90;99.90;;;;;;4981318;28;20042;-59
2022/09/27 01:25:19;;;;;;;2.08;0.30;;;10.00;99.90;;;;;;4987307;28;20026;-59
2022/09/27 01:28:10;;;;;;;1.48;0.30;;;10.00;99.90;;;;;;4980931;28;20037;-59
2022/09/27 01:31:11;;;;;;;1.75;0.17;;;9.90;99.90;;;;;;4979135;28;20121;-57
2022/09/27 01:34:04;;;;;;;0.15;0.05;;;9.90;99.90;;;;;;4986807;28;20106;-59
2022/09/27 01:36:56;;;;;;;4.78;0.25;;;9.90;99.90;;;;;;4983084;28;20042;-59
2022/09/27 01:39:27;;;;;;;2.20;0.60;;;9.90;99.90;;;;;;4988053;28;20030;-59
2022/09/27 01:41:57;;;;;;;6.95;0.45;;;10.00;99.90;;;;;;4985115;28;20038;-59
2022/09/27 01:44:31;;;;;;;1.90;0.22;;;9.90;99.90;;;;;;4982534;28;20062;-59
2022/09/27 01:47:10;;;;;;;1.58;0.80;;;9.90;99.90;;;;;;4989923;28;20117;-59
2022/09/27 01:49:44;;;;;;;0.73;0.30;;;9.80;99.90;;;;;;4991679;28;20030;-59
2022/09/27 01:52:14;;;;;;;0.80;0.20;;;9.80;99.90;;;;;;4990761;28;20038;-57
2022/09/27 01:54:44;;;;;;;2.38;0.38;;;9.70;99.90;;;;;;4989511;28;20146;-58
2022/09/27 01:57:12;;;;;;;2.25;0.30;;;9.60;99.90;;;;;;4991395;28;20050;-57
2022/09/27 01:59:57;;;;;;;0.22;0.08;;;9.50;99.90;;;;;;4991436;28;20100;-57
2022/09/27 02:02:26;;;;;;;1.75;0.32;;;9.40;99.90;;;;;;4989188;28;20093;-57
2022/09/27 02:04:56;;;;;;;0.43;0.17;;;9.40;99.90;;;;;;4989957;28;20030;-57
2022/09/27 02:07:28;;;;;;;1.65;0.40;;;9.30;99.90;;;;;;4990142;28;20042;-57
2022/09/27 02:10:00;;;;;;;;;;;9.30;99.90;;;;;;4992930;28;20038;-57
2022/09/27 02:12:34;;;;;;;1.30;0.15;;;9.10;99.90;;;;;;4991994;28;19914;-57
2022/09/27 02:15:11;;;;;;;4.28;0.30;;;9.10;99.90;;;;;;4980436;28;20509;-57
2022/09/27 02:17:58;;;;;;;4.57;0.55;;;9.00;99.90;;;;;;4992189;28;20031;-59
2022/09/27 02:20:36;;;;;;;2.72;0.22;;;8.90;99.90;;;;;;4982702;28;20032;-58
2022/09/27 02:23:27;;;;;;;2.25;0.40;;;8.90;99.90;;;;;;4990473;28;20030;-59
2022/09/27 02:26:00;;;;;;;0.50;0.15;;;8.90;99.90;;;;;;4991657;28;20174;-57
2022/09/27 02:28:44;;;;;;;1.10;0.38;;;8.90;99.90;;;;;;4992663;28;20035;-58
2022/09/27 02:31:10;;;;;;;1.17;0.80;;;9.00;99.90;;;;;;4993153;28;20475;-57
2022/09/27 02:33:51;;;;;;;2.42;0.25;;;8.90;99.90;;;;;;4991579;28;20042;-57
2022/09/27 02:36:17;;;;;;;2.03;0.22;;;8.90;99.90;;;;;;4991758;28;20023;-57
2022/09/27 02:38:43;;;;;;;1.08;1.02;;;8.90;99.90;;;;;;4991414;28;20061;-57
2022/09/27 02:41:20;;;;;;;0.65;0.20;;;8.80;99.90;;;;;;4992746;28;20030;-58
2022/09/27 02:43:50;;;;;;;2.90;0.28;;;8.70;99.90;;;;;;4990299;28;20038;-58
2022/09/27 02:46:30;;;;;;;0.82;0.20;;;8.70;99.90;;;;;;4992892;28;20418;-58
2022/09/27 02:49:20;;;;;;;1.10;0.10;;;8.70;99.90;;;;;;4991022;28;20041;-58
2022/09/27 02:52:17;;;;;;;2.92;0.22;;;8.60;99.90;;;;;;4990243;28;20026;-58
2022/09/27 02:54:45;;;;;;;2.38;0.10;;;8.70;99.90;;;;;;4982015;28;20114;-58
2022/09/27 02:57:35;;;;;;;1.60;0.40;;;8.70;99.90;;;;;;4988666;28;20109;-58
2022/09/27 03:00:09;;;;;;;0.75;0.10;;;8.80;99.90;;;;;;4988336;28;20105;-58
2022/09/27 03:03:00;;;;;;;2.65;0.40;;;9.00;99.90;;;;;;4983101;28;20454;-58
2022/09/27 03:05:29;;;;;;;2.15;0.32;;;9.10;99.90;;;;;;4989134;28;20224;-57
2022/09/27 03:07:55;;;;;;;4.68;0.30;;;9.30;99.90;;;;;;4987802;28;20030;-58
2022/09/27 03:10:27;;;;;;;1.55;0.38;;;9.40;99.90;;;;;;4992725;28;20489;-58
2022/09/27 03:12:53;;;;;;;2.90;0.30;;;9.50;99.90;;;;;;4988263;28;20034;-58
2022/09/27 03:15:19;;;;;;;2.05;0.35;;;9.60;99.90;;;;;;4987622;28;20053;-58
2022/09/27 03:17:46;;;;;;;4.80;0.25;;;9.60;99.90;;;;;;4986289;28;20134;-57
2022/09/27 03:20:11;;;;;;;3.53;0.40;;;9.70;99.90;;;;;;4990110;28;20034;-58
2022/09/27 03:22:38;;;;;;;0.65;0.35;;;9.70;99.90;;;;;;4992271;28;20093;-58
2022/09/27 03:25:04;;;;;;;1.05;0.10;;;9.70;99.90;;;;;;4990708;28;20030;-58
2022/09/27 03:27:30;;;;;;;1.95;0.20;;;9.80;99.90;;;;;;4990799;28;20121;-58
2022/09/27 03:29:57;;;;;;;1.75;0.20;;;9.80;99.90;;;;;;4990508;28;20109;-58
2022/09/27 03:32:22;;;;;;;6.72;0.63;;;9.90;99.90;;;;;;4987378;28;20034;-58
2022/09/27 03:34:48;;;;;;;1.58;0.10;;;9.90;99.90;;;;;;4981305;28;20038;-59
2022/09/27 03:37:14;;;;;;;1.55;0.10;;;9.90;99.90;;;;;;4991132;28;20437;-58
2022/09/27 03:39:40;;;;;;;2.40;0.28;;;9.80;99.90;;;;;;4991958;28;20030;-58
2022/09/27 03:42:05;;;;;;;2.45;0.20;;;9.80;99.90;;;;;;4991213;28;20443;-58
2022/09/27 03:44:31;;;;;;;3.50;0.65;;;9.70;99.90;;;;;;4984870;28;20034;-58
2022/09/27 03:46:58;;;;;;;5.63;0.35;;;9.70;99.90;;;;;;4982938;28;20014;-58
2022/09/27 03:49:24;;;;;;;3.72;0.22;;;9.70;99.90;;;;;;4992161;28;20049;-58
2022/09/27 03:51:49;;;;;;;1.48;0.43;;;9.80;99.90;;;;;;4990383;28;20470;-58
2022/09/27 03:54:17;;;;;;;4.78;0.35;;;9.80;99.90;;;;;;4989567;28;20422;-58
2022/09/27 03:56:48;;;;;;;6.22;1.02;;;9.80;99.90;;;;;;4989458;28;20486;-58
2022/09/27 03:59:13;;;;;;;0.80;0.20;;;9.80;99.90;;;;;;4978006;28;20069;-57
2022/09/27 04:01:39;;;;;;;2.28;0.40;;;9.80;99.90;;;;;;4989483;28;20077;-57
2022/09/27 04:04:05;;;;;;;3.83;0.60;;;9.70;99.90;;;;;;4987624;28;20042;-57
2022/09/27 04:06:31;;;;;;;2.97;0.20;;;9.70;99.90;;;;;;4990987;28;20030;-58
2022/09/27 04:08:57;;;;;;;1.85;0.20;;;9.80;99.90;;;;;;4989253;28;20062;-58
2022/09/27 04:11:22;;;;;;;2.45;0.30;;;9.90;99.90;;;;;;4991057;28;20022;-58
2022/09/27 04:13:48;;;;;;;2.38;0.40;;;9.90;99.90;;;;;;4988317;28;20386;-58
2022/09/27 04:16:15;;;;;;;1.65;0.88;;;9.90;99.90;;;;;;4988783;28;20032;-58
2022/09/27 04:18:41;;;;;;;0.85;0.30;;;9.80;99.90;;;;;;4989313;28;20037;-58
2022/09/27 04:21:08;;;;;;;1.05;0.20;;;9.80;99.90;;;;;;4991645;28;20375;-57
2022/09/27 04:23:35;;;;;;;1.85;0.40;;;9.80;99.90;;;;;;4990085;28;20303;-57
2022/09/27 04:26:01;;;;;;;1.50;0.17;;;9.70;99.90;;;;;;4986608;28;20026;-57
2022/09/27 04:28:29;;;;;;;1.33;0.40;;;9.70;99.90;;;;;;4984460;28;20475;-57
2022/09/27 04:30:55;;;;;;;2.80;0.70;;;9.80;99.90;;;;;;4989172;28;20086;-57
2022/09/27 04:33:21;;;;;;;0.77;0.50;;;9.80;99.90;;;;;;4991965;28;20030;-57
2022/09/27 04:38:31;;;;;;;1.88;0.13;;;9.70;99.90;;;;;;4991383;28;20390;-57
2022/09/27 04:40:57;;;;;;;1.45;0.13;;;9.60;99.90;;;;;;4986853;28;20026;-57
2022/09/27 04:43:23;;;;;;;1.55;0.20;;;9.60;99.90;;;;;;4989704;28;20026;-58
2022/09/27 04:45:49;;;;;;;1.05;0.30;;;9.60;99.90;;;;;;4988993;28;20027;-58
2022/09/27 04:48:15;;;;;;;1.25;0.28;;;9.60;99.90;;;;;;4990395;28;20079;-58
2022/09/27 04:50:41;;;;;;;5.18;0.52;;;9.60;99.90;;;;;;4988011;28;20466;-58
2022/09/27 04:53:07;;;;;;;2.80;0.40;;;9.60;99.90;;;;;;4989543;28;20057;-57
2022/09/27 04:55:33;;;;;;;7.22;0.45;;;9.60;99.90;;;;;;4990454;28;20104;-58
2022/09/27 04:58:00;;;;;;;0.40;0.30;;;9.60;99.90;;;;;;4987471;28;20073;-58
2022/09/27 05:00:27;;;;;;;1.35;0.35;;;9.70;99.90;;;;;;4986092;28;20105;-57
2022/09/27 05:02:53;;;;;;;2.10;0.30;;;9.70;99.90;;;;;;4984346;28;20493;-58
2022/09/27 05:05:19;;;;;;;3.63;0.40;;;9.70;99.90;;;;;;4989666;28;20072;-58
2022/09/27 05:07:44;;;;;;;2.85;0.20;;;9.70;99.90;;;;;;4985168;28;20118;-58
2022/09/27 05:10:11;;;;;;;1.35;0.40;;;9.80;99.90;;;;;;4989198;28;20101;-58
2022/09/27 05:12:37;;;;;;;0.50;0.20;;;9.80;99.90;;;;;;4989704;28;20121;-58
2022/09/27 05:15:03;;;;;;;0.80;0.10;;;9.80;99.90;;;;;;4988468;28;20029;-58
2022/09/27 05:17:29;;;;;;;3.40;0.30;;;9.80;99.90;;;;;;4990526;28;20027;-58
2022/09/27 05:19:55;;;;;;;8.65;0.38;;;9.80;99.90;;;;;;4987043;28;20410;-58
2022/09/27 05:22:21;;;;;;;1.63;0.47;;;9.90;99.90;;;;;;4986890;28;20162;-58
2022/09/27 05:24:47;;;;;;;1.88;0.20;;;9.80;99.90;;;;;;4988437;28;20041;-58
2022/09/27 05:27:17;;;;;;;3.38;0.73;;;9.80;99.90;;;;;;4989089;28;20109;-58
2022/09/27 05:29:43;;;;;;;2.88;0.52;;;9.80;99.90;;;;;;4987844;28;20049;-59
2022/09/27 05:32:09;;;;;;;2.50;0.93;;;9.80;99.90;;;;;;4989324;28;20172;-58
2022/09/27 05:34:35;;;;;;;1.13;0.22;;;9.80;99.90;;;;;;4990286;28;20121;-58
2022/09/27 05:37:01;;;;;;;0.55;0.55;;;9.70;99.90;;;;;;4987098;28;20124;-58
2022/09/27 05:39:27;;;;;;;3.67;0.25;;;9.70;99.90;;;;;;4989571;28;20030;-57
2022/09/27 05:41:53;;;;;;;3.78;0.30;;;9.80;99.90;;;;;;4987592;28;20471;-58
2022/09/27 05:44:19;;;;;;;0.30;0.05;;;9.90;99.90;;;;;;4985587;28;20110;-58
2022/09/27 05:46:45;;;;;;;4.63;0.20;;;9.90;99.90;;;;;;4987108;28;20070;-58
2022/09/27 05:49:11;;;;;;;3.05;0.30;;;9.90;99.90;;;;;;4987092;28;20026;-58
2022/09/27 05:51:36;;;;;;;8.48;0.75;;;9.90;99.90;;;;;;4989531;28;20026;-58
2022/09/27 05:54:02;;;;;;;1.35;0.73;;;9.90;99.90;;;;;;4987993;28;20041;-57
2022/09/27 05:56:28;;;;;;;2.53;0.30;;;10.00;99.90;;;;;;4986939;28;20030;-58
2022/09/27 05:58:54;;;;;;;0.65;0.40;;;10.00;99.90;;;;;;4981693;28;20479;-57
2022/09/27 06:01:19;;;;;;;4.47;0.22;;;10.00;99.90;;;;;;4986043;28;20033;-57
2022/09/27 06:03:46;;;;;;;1.05;0.20;;;9.90;99.90;;;;;;4980417;28;20372;-57
2022/09/27 06:06:14;;;;;;;1.95;0.32;;;10.00;99.90;;;;;;4987940;28;20026;-57
2022/09/27 06:08:44;;;;;;;0.65;0.40;;;10.00;99.90;;;;;;4988123;28;20113;-57
2022/09/27 06:11:12;;;;;;;1.35;0.40;;;10.00;99.90;;;;;;4988598;28;20027;-58
2022/09/27 06:13:39;;;;;;;1.50;0.22;;;10.00;99.90;;;;;;4988108;28;20022;-58
2022/09/27 06:16:06;;;;;;;4.43;0.28;;;10.10;99.90;;;;;;4987547;28;20057;-57
2022/09/27 06:18:32;;;;;;;3.92;0.40;;;10.10;99.90;;;;;;4989425;28;20049;-58
2022/09/27 06:21:00;;;;;;;0.90;0.25;;;10.20;99.90;;;;;;4987886;28;20029;-57
2022/09/27 06:23:26;;;;;;;1.50;0.25;;;10.00;99.90;;;;;;4987971;28;20042;-58
2022/09/27 06:25:53;;;;;;;0.82;0.45;;;10.30;99.90;;;;;;4987892;28;20386;-59
2022/09/27 06:28:20;;;;;;;3.25;0.85;;;10.30;99.90;;;;;;4989086;28;20491;-57
2022/09/27 06:30:48;;;;;;;0.40;0.20;;;10.30;99.90;;;;;;4988548;28;20045;-58
2022/09/27 06:33:16;;;;;;;0.50;0.10;;;10.30;99.90;;;;;;4991752;28;20034;-58
2022/09/27 06:35:44;;;;;;;0.25;0.10;;;10.30;99.90;;;;;;4990717;28;20110;-58
2022/09/27 06:38:12;;;;;;;2.63;0.52;;;10.40;99.90;;;;;;4993527;28;20382;-57
2022/09/27 06:40:38;;;;;;;2.30;0.82;;;10.30;99.90;;;;;;4993074;28;20026;-58
2022/09/27 06:43:07;;;;;;;1.08;0.20;;;10.40;99.90;;;;;;4990053;28;20035;-58
2022/09/27 06:45:34;;;;;;;0.80;0.20;;;10.40;99.90;;;;;;4992981;28;20054;-58
2022/09/27 06:48:05;;;;;;;2.20;0.30;;;10.50;99.90;;;;;;4989772;28;20446;-58
2022/09/27 06:50:34;;;;;;;2.08;0.45;;;10.50;99.90;;;;;;4992327;28;20038;-58
2022/09/27 06:53:00;;;;;;;1.83;0.28;;;10.50;99.90;;;;;;4990248;28;20029;-58
2022/09/27 06:55:26;;;;;;;2.13;0.25;;;10.50;99.90;;;;;;4992273;28;20128;-57
2022/09/27 07:00:46;;;;;;;2.80;0.73;;;10.40;99.90;;;;;;4992353;28;20104;-59
2022/09/27 07:03:13;;;;;;;0.82;0.10;;;10.40;99.90;;;;;;4979235;28;20037;-59
2022/09/27 07:05:40;;;;;;;5.68;0.75;;;10.50;99.90;;;;;;4994676;28;20042;-59
2022/09/27 07:08:05;;;;;;;4.43;0.65;;;10.60;99.90;;;;;;4989977;28;20105;-60
2022/09/27 07:10:34;;;;;;;3.72;0.50;;;10.60;99.90;;;;;;4988593;28;20133;-59
2022/09/27 07:13:08;;;;;;;1.88;0.45;;;10.60;99.90;;;;;;4983964;28;20026;-59
2022/09/27 07:15:37;;;;;;;0.73;0.40;;;10.50;99.90;;;;;;4985600;28;20502;-59
2022/09/27 07:18:06;;;;;;;2.78;0.52;;;10.40;99.90;;;;;;4984597;28;20040;-59
2022/09/27 07:20:34;;;;;;;3.45;0.50;;;10.30;99.90;;;;;;4986062;28;20018;-58
2022/09/27 07:23:00;;;;;;;4.43;0.77;;;10.20;99.90;;;;;;4982055;28;20061;-58
2022/09/27 07:25:26;;;;;;;2.20;0.52;;;10.20;99.90;;;;;;4986025;28;20363;-58
2022/09/27 07:27:52;;;;;;;1.85;0.60;;;10.20;99.90;;;;;;4978875;28;20023;-57
2022/09/27 07:30:22;;;;;;;6.47;0.75;;;10.10;99.90;;;;;;4982795;28;20026;-58
2022/09/27 07:32:49;;;;;;;0.55;0.15;;;10.20;99.90;;;;;;4983883;28;20386;-58
2022/09/27 07:35:15;;;;;;;2.63;0.38;;;10.20;99.90;;;;;;4985365;28;20019;-57
2022/09/27 07:37:41;;;;;;;3.00;0.43;;;10.20;99.90;;;;;;4985469;28;20037;-58
2022/09/27 07:40:09;;;;;;;3.85;1.00;;;10.20;99.90;;;;;;4989032;28;20027;-58
2022/09/27 07:42:39;;;;;;;4.55;0.45;;;10.30;99.90;;;;;;4979362;28;20038;-59
2022/09/27 07:45:06;;;;;;;3.00;0.50;;;10.50;99.90;;;;;;4986513;28;20470;-58
2022/09/27 07:47:32;;;;;;;2.33;0.63;;;10.60;99.90;;;;;;4986230;28;20122;-58
2022/09/27 07:50:02;;;;;;;0.75;0.57;;;10.70;99.90;;;;;;4983528;28;20438;-58
2022/09/27 07:52:28;;;;;;;1.95;0.73;;;10.90;99.90;;;;;;4986947;28;20030;-59
2022/09/27 07:54:54;;;;;;;5.03;0.63;;;11.00;99.90;;;;;;4985263;28;20084;-58
2022/09/27 07:57:22;;;;;;;3.20;1.15;;;11.00;99.90;;;;;;4986106;28;20431;-59
2022/09/27 07:59:48;;;;;;;5.05;0.63;;;11.10;99.90;;;;;;4980137;28;20056;-59
2022/09/27 08:02:15;;;;;;;3.63;0.73;;;11.20;99.90;;;;;;4987383;28;20077;-59
2022/09/27 08:04:42;;;;;;;2.00;0.57;;;11.30;99.90;;;;;;4980842;28;20437;-59
2022/09/27 08:07:09;;;;;;;7.00;1.05;;;11.40;99.90;;;;;;4986626;28;20033;-59
2022/09/27 08:09:36;;;;;;;5.20;1.08;;;11.50;99.90;;;;;;4988033;28;20030;-59
2022/09/27 08:12:03;;;;;;;1.85;0.50;;;11.70;99.90;;;;;;4984682;28;20884;-59
2022/09/27 08:14:29;;;;;;;9.13;0.57;;;11.60;99.90;;;;;;4986729;28;20026;-58
2022/09/27 08:16:55;;;;;;;6.38;0.98;;;11.80;99.90;;;;;;4982000;28;20022;-58
2022/09/27 08:19:21;;;;;;;5.05;0.60;;;11.80;99.90;;;;;;4985258;28;20382;-58
2022/09/27 08:21:47;;;;;;;7.75;1.58;;;11.90;99.90;;;;;;4986228;28;20041;-58
2022/09/27 08:24:13;;;;;;;0.45;0.32;;;11.80;99.90;;;;;;4982038;28;20038;-57
2022/09/27 08:26:39;;;;;;;4.78;0.95;;;11.80;99.90;;;;;;4982569;28;20506;-59
2022/09/27 08:29:05;;;;;;;3.08;0.68;;;11.70;99.90;;;;;;4979645;28;20367;-59
2022/09/27 08:31:31;;;;;;;8.88;1.25;;;11.60;99.90;;;;;;4986777;28;20029;-58
2022/09/27 08:33:57;;;;;;;2.78;0.98;;;11.60;99.90;;;;;;4980491;28;20030;-58
2022/09/27 08:36:23;;;;;;;9.15;1.20;;;11.60;99.90;;;;;;4983241;28;20038;-58
2022/09/27 08:38:50;;;;;;;1.80;0.68;;;11.60;99.90;;;;;;4983908;28;20026;-59
2022/09/27 08:41:32;;;;;;;4.95;0.40;;;11.70;99.90;;;;;;4986301;28;20034;-59
2022/09/27 08:44:07;;;;;;;2.50;0.68;;;11.70;99.90;;;;;;4982726;28;20389;-59
2022/09/27 08:46:42;;;;;;;8.88;1.48;;;11.80;99.90;;;;;;4981105;28;20058;-59
2022/09/27 08:49:24;;;;;;;4.10;0.88;;;12.00;99.90;;;;;;4985292;28;20036;-59
2022/09/27 08:51:51;;;;;;;3.80;1.10;;;12.20;99.90;;;;;;4984605;28;20436;-59
2022/09/27 08:54:28;;;;;;;2.80;0.73;;;12.30;99.90;;;;;;4987027;28;20096;-59
2022/09/27 08:57:02;;;;;;;3.30;0.63;;;12.50;99.90;;;;;;4979548;28;20034;-59
2022/09/27 08:59:38;;;;;;;4.68;0.77;;;12.70;99.90;;;;;;4983925;28;20524;-58
2022/09/27 09:02:15;;;;;;;5.18;1.00;;;12.90;99.90;;;;;;4985936;28;20077;-58
2022/09/27 09:04:41;;;;;;;1.90;0.70;;;12.80;99.90;;;;;;4986973;28;20534;-58
2022/09/27 09:07:23;;;;;;;5.45;1.15;;;12.90;99.90;;;;;;4984041;28;20061;-57
2022/09/27 09:10:04;;;;;;;2.42;0.75;;;12.90;99.90;;;;;;4983077;28;20175;-58
2022/09/27 09:12:48;;;;;;;3.25;0.60;;;13.10;99.90;;;;;;4981987;28;20053;-60
2022/09/27 09:15:53;;;;;;;3.05;0.55;;;13.20;99.90;;;;;;4981210;28;20394;-59
2022/09/27 09:18:37;;;;;;;3.90;0.30;;;13.40;99.90;;;;;;4982841;28;20429;-59
2022/09/27 09:21:22;;;;;;;6.55;1.13;;;13.60;99.90;;;;;;4982824;28;20414;-61
2022/09/27 09:24:11;;;;;;;3.55;0.47;;;13.70;99.90;;;;;;4983731;28;20494;-58
2022/09/27 09:26:42;;;;;;;1.90;0.60;;;14.10;99.90;;;;;;4977737;28;20219;-58
2022/09/27 09:29:37;;;;;;;5.90;0.80;;;14.40;99.90;;;;;;4982961;28;20093;-59
2022/09/27 09:32:24;;;;;;;1.98;0.30;;;14.50;99.90;;;;;;4977931;28;20034;-59
2022/09/27 09:34:59;;;;;;;1.15;0.50;;;14.70;99.90;;;;;;4981867;28;20367;-59
2022/09/27 09:37:48;;;;;;;4.10;0.65;;;14.60;99.90;;;;;;4999432;28;20386;-57
2022/09/27 09:40:45;;;;;;;6.38;0.60;;;14.60;99.90;;;;;;4980912;28;20435;-60
2022/09/27 09:43:21;;;;;;;1.92;0.50;;;14.40;99.90;;;;;;4977602;28;20050;-59
2022/09/27 09:46:09;;;;;;;2.03;1.13;;;14.20;99.90;;;;;;4981902;28;21817;-58
2022/09/27 09:48:45;;;;;;;1.05;0.32;;;14.00;99.90;;;;;;4986362;28;20034;-58
2022/09/27 09:51:21;;;;;;;2.13;0.63;;;13.70;99.90;;;;;;4982069;28;20038;-59
2022/09/27 09:53:57;;;;;;;5.65;0.93;;;13.80;99.90;;;;;;4983556;28;20038;-59
2022/09/27 09:56:28;;;;;;;7.18;0.63;;;13.90;99.90;;;;;;4980788;28;20023;-59
2022/09/27 09:59:02;;;;;;;4.28;0.50;;;14.10;99.90;;;;;;4979334;28;20046;-59
2022/09/27 10:01:43;;;;;;;3.55;0.75;;;14.30;99.90;;;;;;4982460;28;20049;-59
2022/09/27 10:04:23;;;;;;;5.47;0.63;;;14.50;99.90;;;;;;4980524;28;20046;-59
2022/09/27 10:06:51;;;;;;;5.22;0.47;;;14.50;99.90;;;;;;4983998;28;20026;-59
2022/09/27 10:09:26;;;;;;;3.83;1.35;;;14.80;99.90;;;;;;4986962;28;20041;-58
2022/09/27 10:11:52;;;;;;;5.18;0.57;;;15.00;99.90;;;;;;4981781;28;20026;-59
2022/09/27 10:14:20;;;;;;;4.78;0.50;;;15.30;99.90;;;;;;4989074;28;20026;-59
2022/09/27 10:16:58;;;;;;;5.55;0.77;;;15.40;99.90;;;;;;4986165;28;20490;-58
2022/09/27 10:19:33;;;;;;;9.55;0.60;;;15.20;99.90;;;;;;4986411;28;20037;-58
2022/09/27 10:22:15;;;;;;;4.30;0.90;;;15.10;99.90;;;;;;4986652;28;20076;-58
2022/09/27 10:25:01;;;;;;;4.68;0.85;;;15.20;99.90;;;;;;4984366;28;20041;-59
2022/09/27 10:27:37;;;;;;;9.43;0.85;;;15.00;99.90;;;;;;4986954;28;20174;-58
2022/09/27 10:30:03;;;;;;;3.15;1.05;;;15.00;99.90;;;;;;4983779;28;20553;-59
2022/09/27 10:32:36;;;;;;;5.47;0.80;;;15.10;99.90;;;;;;4988392;28;20033;-58
2022/09/27 10:35:28;;;;;;;4.88;1.30;;;15.30;99.90;;;;;;4986731;28;20058;-59
2022/09/27 10:38:13;;;;;;;4.47;1.20;;;15.50;99.90;;;;;;5001279;28;20042;-59
2022/09/27 10:40:39;;;;;;;2.72;0.90;;;15.50;99.90;;;;;;4985989;28;20563;-59
2022/09/27 10:43:33;;;;;;;3.85;0.80;;;15.30;99.90;;;;;;4981604;28;20042;-59
2022/09/27 10:46:21;;;;;;;3.33;0.50;;;15.10;99.90;;;;;;4985269;28;20023;-59
2022/09/27 10:48:48;;;;;;;1.23;0.30;;;14.90;99.90;;;;;;4983410;28;20539;-59
2022/09/27 10:51:30;;;;;;;5.93;0.75;;;14.70;99.90;;;;;;4986002;28;20269;-59
2022/09/27 10:54:00;;;;;;;4.45;0.60;;;14.80;99.90;;;;;;4982438;28;20426;-60
2022/09/27 10:56:34;;;;;;;4.18;0.82;;;15.00;99.90;;;;;;4984758;28;20161;-61
2022/09/27 10:59:01;;;;;;;2.80;0.50;;;15.00;99.90;;;;;;4983758;28;20054;-58
2022/09/27 11:01:41;;;;;;;2.28;0.50;;;15.00;99.90;;;;;;4986533;28;20034;-59
2022/09/27 11:04:27;;;;;;;3.58;0.80;;;15.00;99.90;;;;;;4981524;28;20090;-58
2022/09/27 11:07:19;;;;;;;3.92;0.77;;;15.10;99.90;;;;;;4984638;28;20022;-58
2022/09/27 11:09:54;;;;;;;2.10;0.43;;;15.30;99.90;;;;;;4981014;28;20030;-58
2022/09/27 11:12:22;;;;;;;3.60;0.40;;;15.20;99.90;;;;;;5001856;28;20116;-59
2022/09/27 11:15:01;;;;;;;1.35;0.65;;;15.10;99.90;;;;;;4983790;28;20552;-58
2022/09/27 11:17:54;;;;;;;2.42;0.40;;;15.20;99.90;;;;;;4983304;28;20375;-59
2022/09/27 11:20:43;;;;;;;0.95;0.30;;;15.30;99.90;;;;;;4987195;28;20058;-59
2022/09/27 11:23:37;;;;;;;2.47;0.47;;;16.40;99.90;;;;;;4981733;28;20033;-59
2022/09/27 11:26:56;;;;;;;2.20;0.77;;;17.10;99.90;;;;;;4988270;28;20026;-59
2022/09/27 11:29:34;;;;;;;1.10;0.40;;;17.40;99.90;;;;;;4985145;28;20486;-59
2022/09/27 11:32:06;;;;;;;2.10;0.50;;;17.60;99.90;;;;;;4988286;28;20061;-59
2022/09/27 11:34:53;;;;;;;4.70;0.32;;;17.00;99.90;;;;;;4989037;28;20031;-59
2022/09/27 11:37:43;;;;;;;2.35;0.60;;;17.10;99.90;;;;;;4986974;28;20034;-59
2022/09/27 11:40:21;;;;;;;1.90;0.40;;;17.30;99.90;;;;;;4990518;28;20026;-61
2022/09/27 11:43:21;;;;;;;1.35;0.38;;;17.10;99.90;;;;;;4981090;28;20034;-60
2022/09/27 11:46:13;;;;;;;1.98;0.30;;;17.10;99.90;;;;;;4986452;28;20041;-60
2022/09/27 11:48:59;;;;;;;1.63;0.50;;;17.20;99.90;;;;;;4986503;28;20034;-60
2022/09/27 11:51:34;;;;;;;3.17;0.60;;;17.00;99.90;;;;;;4989757;28;20093;-59
2022/09/27 11:54:12;;;;;;;4.80;0.80;;;16.90;99.90;;;;;;4981981;28;20030;-60
2022/09/27 11:56:49;;;;;;;4.38;0.75;;;16.90;99.90;;;;;;4986661;28;20041;-59
2022/09/27 11:59:39;;;;;;;3.05;0.68;;;16.90;99.90;;;;;;4988424;28;20081;-59
2022/09/27 12:02:39;;;;;;;5.07;0.65;;;16.60;99.90;;;;;;4983692;28;20070;-59
2022/09/27 12:05:46;;;;;;;3.40;0.50;;;16.80;99.90;;;;;;4988358;28;20034;-60
2022/09/27 12:08:53;;;;;;;3.50;0.70;;;16.90;99.90;;;;;;4988815;28;20116;-59
2022/09/27 12:11:30;;;;;;;2.97;0.60;;;16.40;99.90;;;;;;4986771;28;20033;-59
2022/09/27 12:14:15;;;;;;;1.55;0.63;;;16.30;99.90;;;;;;4987550;28;20030;-61
2022/09/27 12:16:42;;;;;;;3.42;0.70;;;16.30;99.90;;;;;;4983838;28;20052;-59
2022/09/27 12:19:31;;;;;;;1.20;0.32;;;16.70;99.90;;;;;;4988070;28;20433;-59
2022/09/27 12:22:02;;;;;;;2.88;0.70;;;17.80;99.90;;;;;;4987566;28;20057;-60
2022/09/27 12:24:29;;;;;;;1.90;0.40;;;17.70;99.90;;;;;;4988348;28;20047;-60
2022/09/27 12:27:00;;;;;;;1.13;0.50;;;18.80;99.90;;;;;;4986349;28;20276;-59
2022/09/27 12:29:33;;;;;;;2.10;0.60;;;19.50;99.90;;;;;;4988871;28;20493;-59
2022/09/27 12:32:14;;;;;;;1.88;0.50;;;19.90;99.90;;;;;;4986481;28;20026;-59
2022/09/27 12:34:45;;;;;;;1.60;0.50;;;20.30;99.90;;;;;;4981690;28;20030;-59
2022/09/27 12:37:39;;;;;;;2.90;0.50;;;20.30;99.90;;;;;;4985465;28;20037;-59
2022/09/27 12:40:23;;;;;;;0.70;0.30;;;19.70;99.90;;;;;;4986668;28;20033;-59
2022/09/27 12:42:52;;;;;;;3.80;1.02;;;20.20;99.90;;;;;;4979451;28;20034;-59
2022/09/27 12:45:42;;;;;;;2.58;0.32;;;20.10;99.90;;;;;;4989873;28;20088;-59
2022/09/27 12:48:47;;;;;;;3.67;0.50;;;20.70;99.90;;;;;;4980755;28;20362;-60
2022/09/27 12:51:16;;;;;;;2.58;0.65;;;21.30;99.90;;;;;;4962890;28;20039;-60
2022/09/27 12:53:50;;;;;;;3.30;0.73;;;20.80;99.50;;;;;;4965765;28;20027;-60
2022/09/27 12:56:33;;;;;;;3.03;0.47;;;19.80;99.90;;;;;;4965418;28;20039;-58
2022/09/27 12:59:30;;;;;;;2.50;0.50;;;18.90;99.90;;;;;;4964371;28;20047;-59
2022/09/27 13:02:26;;;;;;;3.80;1.23;;;18.80;99.90;;;;;;4960509;28;20035;-58
2022/09/27 13:05:02;;;;;;;2.00;0.60;;;18.00;99.90;;;;;;4959890;28;20145;-58
2022/09/27 13:07:51;;;;;;;3.15;0.80;;;18.00;99.90;;;;;;4962321;28;20521;-60
2022/09/27 13:10:39;;;;;;;2.50;0.75;;;17.40;99.90;;;;;;4967253;28;20097;-62
2022/09/27 13:13:09;;;;;;;2.40;0.75;;;16.90;99.90;;;;;;4963630;28;20111;-60
2022/09/27 13:15:38;;;;;;;2.03;0.40;;;16.80;99.90;;;;;;4963391;28;20031;-58
2022/09/27 13:18:25;;;;;;;4.93;0.88;;;16.50;99.90;;;;;;4964480;28;20037;-59
2022/09/27 13:20:51;;;;;;;3.80;0.50;;;16.60;99.90;;;;;;4958651;28;20467;-60
2022/09/27 13:23:17;;;;;;;1.90;0.60;;;16.60;99.90;;;;;;4967376;28;20052;-59
2022/09/27 13:25:53;;;;;;;0.85;0.40;;;16.30;99.90;;;;;;4964269;28;20038;-59
2022/09/27 13:28:30;;;;;;;1.00;0.20;;;16.20;99.90;;;;;;4973534;28;20030;-59